sensor_id;sensor_type;location;lat;lon;timestamp;P1;durP1;ratioP1;P2;durP2;ratioP2
19780;SDS011;10050;55.492;13.506;2023-07-31T00:01:01;4.30;;;1.40;;
19780;SDS011;10050;55.492;13.506;2023-07-31T00:03:27;7.33;;;2.17;;
19780;SDS011;10050;55.492;13.506;2023-07-31T00:05:53;5.10;;;1.70;;
19780;SDS011;10050;55.492;13.506;2023-07-31T00:08:18;4.30;;;1.50;;
19780;SDS011;10050;55.492;13.506;2023-07-31T00:10:44;4.47;;;1.87;;
19780;SDS011;10050;55.492;13.506;2023-07-31T00:13:09;5.63;;;1.90;;
19780;SDS011;10050;55.492;13.506;2023-07-31T00:15:35;6.37;;;1.97;;
19780;SDS011;10050;55.492;13.506;2023-07-31T00:18:04;8.17;;;2.37;;
19780;SDS011;10050;55.492;13.506;2023-07-31T00:20:32;4.77;;;1.70;;
19780;SDS011;10050;55.492;13.506;2023-07-31T00:25:48;5.87;;;2.07;;
19780;SDS011;10050;55.492;13.506;2023-07-31T00:28:14;6.27;;;1.40;;
19780;SDS011;10050;55.492;13.506;2023-07-31T00:30:40;7.00;;;1.70;;
19780;SDS011;10050;55.492;13.506;2023-07-31T00:33:05;7.37;;;1.70;;
19780;SDS011;10050;55.492;13.506;2023-07-31T00:35:31;4.83;;;1.23;;
19780;SDS011;10050;55.492;13.506;2023-07-31T00:37:57;6.47;;;1.80;;
19780;SDS011;10050;55.492;13.506;2023-07-31T00:40:23;7.80;;;2.00;;
19780;SDS011;10050;55.492;13.506;2023-07-31T00:42:49;5.43;;;2.00;;
19780;SDS011;10050;55.492;13.506;2023-07-31T00:45:14;4.87;;;1.60;;
19780;SDS011;10050;55.492;13.506;2023-07-31T00:47:40;4.93;;;1.70;;
19780;SDS011;10050;55.492;13.506;2023-07-31T00:50:06;3.60;;;1.33;;
19780;SDS011;10050;55.492;13.506;2023-07-31T00:52:32;7.83;;;1.37;;
19780;SDS011;10050;55.492;13.506;2023-07-31T00:54:58;5.90;;;1.67;;
19780;SDS011;10050;55.492;13.506;2023-07-31T00:57:24;4.13;;;1.47;;
19780;SDS011;10050;55.492;13.506;2023-07-31T00:59:50;4.73;;;1.60;;
19780;SDS011;10050;55.492;13.506;2023-07-31T01:02:16;6.10;;;1.37;;
19780;SDS011;10050;55.492;13.506;2023-07-31T01:04:42;3.73;;;1.67;;
19780;SDS011;10050;55.492;13.506;2023-07-31T01:07:30;6.47;;;1.70;;
19780;SDS011;10050;55.492;13.506;2023-07-31T01:10:08;6.13;;;1.90;;
19780;SDS011;10050;55.492;13.506;2023-07-31T01:12:41;7.33;;;1.60;;
19780;SDS011;10050;55.492;13.506;2023-07-31T01:15:08;6.37;;;1.50;;
19780;SDS011;10050;55.492;13.506;2023-07-31T01:17:39;3.10;;;1.13;;
19780;SDS011;10050;55.492;13.506;2023-07-31T01:20:12;3.77;;;1.53;;
19780;SDS011;10050;55.492;13.506;2023-07-31T01:22:47;5.67;;;1.60;;
19780;SDS011;10050;55.492;13.506;2023-07-31T01:28:14;5.80;;;1.40;;
19780;SDS011;10050;55.492;13.506;2023-07-31T01:30:48;3.53;;;1.40;;
19780;SDS011;10050;55.492;13.506;2023-07-31T01:33:15;4.80;;;1.57;;
19780;SDS011;10050;55.492;13.506;2023-07-31T01:35:43;2.60;;;1.67;;
19780;SDS011;10050;55.492;13.506;2023-07-31T01:38:10;5.00;;;1.57;;
19780;SDS011;10050;55.492;13.506;2023-07-31T01:40:36;4.47;;;1.83;;
19780;SDS011;10050;55.492;13.506;2023-07-31T01:43:01;2.77;;;0.97;;
19780;SDS011;10050;55.492;13.506;2023-07-31T01:45:27;8.50;;;1.73;;
19780;SDS011;10050;55.492;13.506;2023-07-31T01:47:52;2.00;;;1.33;;
19780;SDS011;10050;55.492;13.506;2023-07-31T01:50:18;3.90;;;1.50;;
19780;SDS011;10050;55.492;13.506;2023-07-31T01:52:44;4.70;;;1.63;;
19780;SDS011;10050;55.492;13.506;2023-07-31T01:55:09;8.63;;;1.83;;
19780;SDS011;10050;55.492;13.506;2023-07-31T01:57:36;4.17;;;1.67;;
19780;SDS011;10050;55.492;13.506;2023-07-31T02:00:02;3.97;;;1.97;;
19780;SDS011;10050;55.492;13.506;2023-07-31T02:02:28;3.47;;;1.60;;
19780;SDS011;10050;55.492;13.506;2023-07-31T02:04:54;3.57;;;1.70;;
19780;SDS011;10050;55.492;13.506;2023-07-31T02:07:19;6.33;;;1.70;;
19780;SDS011;10050;55.492;13.506;2023-07-31T02:09:45;6.37;;;1.83;;
19780;SDS011;10050;55.492;13.506;2023-07-31T02:12:12;6.13;;;1.60;;
19780;SDS011;10050;55.492;13.506;2023-07-31T02:14:39;4.10;;;1.40;;
19780;SDS011;10050;55.492;13.506;2023-07-31T02:17:05;5.53;;;1.60;;
19780;SDS011;10050;55.492;13.506;2023-07-31T02:19:31;3.50;;;1.53;;
19780;SDS011;10050;55.492;13.506;2023-07-31T02:21:57;5.23;;;1.70;;
19780;SDS011;10050;55.492;13.506;2023-07-31T02:24:23;3.47;;;1.83;;
19780;SDS011;10050;55.492;13.506;2023-07-31T02:26:49;5.10;;;2.40;;
19780;SDS011;10050;55.492;13.506;2023-07-31T02:29:14;6.17;;;1.47;;
19780;SDS011;10050;55.492;13.506;2023-07-31T02:31:40;7.93;;;2.00;;
19780;SDS011;10050;55.492;13.506;2023-07-31T02:34:06;3.53;;;1.40;;
19780;SDS011;10050;55.492;13.506;2023-07-31T02:36:31;9.60;;;1.80;;
19780;SDS011;10050;55.492;13.506;2023-07-31T02:38:57;5.03;;;1.63;;
19780;SDS011;10050;55.492;13.506;2023-07-31T02:41:22;2.87;;;1.30;;
19780;SDS011;10050;55.492;13.506;2023-07-31T02:43:48;4.40;;;1.70;;
19780;SDS011;10050;55.492;13.506;2023-07-31T02:46:13;3.27;;;1.50;;
19780;SDS011;10050;55.492;13.506;2023-07-31T02:48:39;3.60;;;1.63;;
19780;SDS011;10050;55.492;13.506;2023-07-31T02:51:05;3.70;;;1.57;;
19780;SDS011;10050;55.492;13.506;2023-07-31T02:53:30;4.60;;;1.60;;
19780;SDS011;10050;55.492;13.506;2023-07-31T02:55:56;4.23;;;1.50;;
19780;SDS011;10050;55.492;13.506;2023-07-31T02:58:21;1.73;;;1.10;;
19780;SDS011;10050;55.492;13.506;2023-07-31T03:00:47;2.03;;;1.50;;
19780;SDS011;10050;55.492;13.506;2023-07-31T03:03:12;5.33;;;1.40;;
19780;SDS011;10050;55.492;13.506;2023-07-31T03:05:38;2.77;;;1.40;;
19780;SDS011;10050;55.492;13.506;2023-07-31T03:08:04;3.47;;;1.20;;
19780;SDS011;10050;55.492;13.506;2023-07-31T03:10:29;2.37;;;0.90;;
19780;SDS011;10050;55.492;13.506;2023-07-31T03:12:55;2.60;;;1.20;;
19780;SDS011;10050;55.492;13.506;2023-07-31T03:15:21;4.83;;;1.40;;
19780;SDS011;10050;55.492;13.506;2023-07-31T03:17:46;2.97;;;1.30;;
19780;SDS011;10050;55.492;13.506;2023-07-31T03:20:12;2.13;;;1.13;;
19780;SDS011;10050;55.492;13.506;2023-07-31T03:22:37;1.60;;;1.10;;
19780;SDS011;10050;55.492;13.506;2023-07-31T03:25:03;2.07;;;1.30;;
19780;SDS011;10050;55.492;13.506;2023-07-31T03:27:29;2.20;;;1.30;;
19780;SDS011;10050;55.492;13.506;2023-07-31T03:29:55;1.67;;;1.10;;
19780;SDS011;10050;55.492;13.506;2023-07-31T03:32:20;4.53;;;1.30;;
19780;SDS011;10050;55.492;13.506;2023-07-31T03:34:46;1.00;;;0.90;;
19780;SDS011;10050;55.492;13.506;2023-07-31T03:37:12;3.63;;;1.40;;
19780;SDS011;10050;55.492;13.506;2023-07-31T03:39:37;3.87;;;1.60;;
19780;SDS011;10050;55.492;13.506;2023-07-31T03:42:03;3.50;;;1.00;;
19780;SDS011;10050;55.492;13.506;2023-07-31T03:44:29;4.93;;;1.47;;
19780;SDS011;10050;55.492;13.506;2023-07-31T03:46:54;1.37;;;1.27;;
19780;SDS011;10050;55.492;13.506;2023-07-31T03:49:20;1.30;;;1.20;;
19780;SDS011;10050;55.492;13.506;2023-07-31T03:51:46;3.90;;;1.30;;
19780;SDS011;10050;55.492;13.506;2023-07-31T03:54:11;1.43;;;1.33;;
19780;SDS011;10050;55.492;13.506;2023-07-31T03:56:38;6.07;;;1.43;;
19780;SDS011;10050;55.492;13.506;2023-07-31T03:59:03;1.60;;;1.10;;
19780;SDS011;10050;55.492;13.506;2023-07-31T04:01:29;4.23;;;1.50;;
19780;SDS011;10050;55.492;13.506;2023-07-31T04:03:55;3.80;;;1.03;;
19780;SDS011;10050;55.492;13.506;2023-07-31T04:06:21;2.57;;;1.20;;
19780;SDS011;10050;55.492;13.506;2023-07-31T04:08:46;3.30;;;1.30;;
19780;SDS011;10050;55.492;13.506;2023-07-31T04:11:12;1.20;;;1.10;;
19780;SDS011;10050;55.492;13.506;2023-07-31T04:13:38;2.33;;;1.10;;
19780;SDS011;10050;55.492;13.506;2023-07-31T04:16:04;5.07;;;1.30;;
19780;SDS011;10050;55.492;13.506;2023-07-31T04:18:30;2.37;;;1.27;;
19780;SDS011;10050;55.492;13.506;2023-07-31T04:20:56;3.13;;;1.20;;
19780;SDS011;10050;55.492;13.506;2023-07-31T04:23:23;2.70;;;1.23;;
19780;SDS011;10050;55.492;13.506;2023-07-31T04:25:51;3.10;;;1.30;;
19780;SDS011;10050;55.492;13.506;2023-07-31T04:28:17;3.90;;;1.40;;
19780;SDS011;10050;55.492;13.506;2023-07-31T04:30:42;3.17;;;1.27;;
19780;SDS011;10050;55.492;13.506;2023-07-31T04:33:08;7.07;;;1.43;;
19780;SDS011;10050;55.492;13.506;2023-07-31T04:35:34;2.47;;;1.67;;
19780;SDS011;10050;55.492;13.506;2023-07-31T04:37:59;5.90;;;1.60;;
19780;SDS011;10050;55.492;13.506;2023-07-31T04:40:25;5.10;;;1.80;;
19780;SDS011;10050;55.492;13.506;2023-07-31T04:42:51;7.00;;;2.17;;
19780;SDS011;10050;55.492;13.506;2023-07-31T04:45:16;3.70;;;1.20;;
19780;SDS011;10050;55.492;13.506;2023-07-31T04:47:42;3.83;;;1.20;;
19780;SDS011;10050;55.492;13.506;2023-07-31T04:50:08;10.33;;;2.13;;
19780;SDS011;10050;55.492;13.506;2023-07-31T04:52:34;5.60;;;1.80;;
19780;SDS011;10050;55.492;13.506;2023-07-31T04:54:59;4.33;;;1.50;;
19780;SDS011;10050;55.492;13.506;2023-07-31T04:57:25;3.97;;;1.77;;
19780;SDS011;10050;55.492;13.506;2023-07-31T04:59:50;3.60;;;1.53;;
19780;SDS011;10050;55.492;13.506;2023-07-31T05:02:16;5.43;;;1.67;;
19780;SDS011;10050;55.492;13.506;2023-07-31T05:04:42;5.63;;;1.80;;
19780;SDS011;10050;55.492;13.506;2023-07-31T05:07:07;2.50;;;1.27;;
19780;SDS011;10050;55.492;13.506;2023-07-31T05:09:33;5.63;;;1.73;;
19780;SDS011;10050;55.492;13.506;2023-07-31T05:11:59;3.17;;;1.30;;
19780;SDS011;10050;55.492;13.506;2023-07-31T05:14:25;4.13;;;1.90;;
19780;SDS011;10050;55.492;13.506;2023-07-31T05:16:51;4.03;;;1.50;;
19780;SDS011;10050;55.492;13.506;2023-07-31T05:19:17;2.93;;;1.37;;
19780;SDS011;10050;55.492;13.506;2023-07-31T05:21:43;7.43;;;1.87;;
19780;SDS011;10050;55.492;13.506;2023-07-31T05:24:08;7.80;;;1.37;;
19780;SDS011;10050;55.492;13.506;2023-07-31T05:26:35;3.60;;;1.33;;
19780;SDS011;10050;55.492;13.506;2023-07-31T05:29:00;3.93;;;1.57;;
19780;SDS011;10050;55.492;13.506;2023-07-31T05:31:26;6.93;;;1.63;;
19780;SDS011;10050;55.492;13.506;2023-07-31T05:33:52;5.57;;;1.47;;
19780;SDS011;10050;55.492;13.506;2023-07-31T05:36:17;2.17;;;1.30;;
19780;SDS011;10050;55.492;13.506;2023-07-31T05:38:43;4.17;;;1.27;;
19780;SDS011;10050;55.492;13.506;2023-07-31T05:41:11;3.43;;;1.63;;
19780;SDS011;10050;55.492;13.506;2023-07-31T05:43:37;5.80;;;1.43;;
19780;SDS011;10050;55.492;13.506;2023-07-31T05:46:03;4.13;;;1.33;;
19780;SDS011;10050;55.492;13.506;2023-07-31T05:48:29;8.53;;;1.70;;
19780;SDS011;10050;55.492;13.506;2023-07-31T05:50:54;5.33;;;1.50;;
19780;SDS011;10050;55.492;13.506;2023-07-31T05:53:20;2.70;;;1.20;;
19780;SDS011;10050;55.492;13.506;2023-07-31T05:55:46;4.90;;;1.40;;
19780;SDS011;10050;55.492;13.506;2023-07-31T05:58:11;3.87;;;1.10;;
19780;SDS011;10050;55.492;13.506;2023-07-31T06:00:37;4.37;;;1.30;;
19780;SDS011;10050;55.492;13.506;2023-07-31T06:03:02;2.00;;;1.23;;
19780;SDS011;10050;55.492;13.506;2023-07-31T06:05:29;3.47;;;1.27;;
19780;SDS011;10050;55.492;13.506;2023-07-31T06:07:55;4.33;;;1.57;;
19780;SDS011;10050;55.492;13.506;2023-07-31T06:10:24;2.47;;;1.10;;
19780;SDS011;10050;55.492;13.506;2023-07-31T06:12:49;7.60;;;1.60;;
19780;SDS011;10050;55.492;13.506;2023-07-31T06:15:15;4.00;;;1.30;;
19780;SDS011;10050;55.492;13.506;2023-07-31T06:17:40;4.77;;;1.37;;
19780;SDS011;10050;55.492;13.506;2023-07-31T06:20:07;3.63;;;1.20;;
19780;SDS011;10050;55.492;13.506;2023-07-31T06:22:33;4.20;;;1.13;;
19780;SDS011;10050;55.492;13.506;2023-07-31T06:24:59;3.83;;;1.20;;
19780;SDS011;10050;55.492;13.506;2023-07-31T06:27:24;2.37;;;1.40;;
19780;SDS011;10050;55.492;13.506;2023-07-31T06:29:50;7.80;;;2.07;;
19780;SDS011;10050;55.492;13.506;2023-07-31T06:32:16;2.87;;;1.33;;
19780;SDS011;10050;55.492;13.506;2023-07-31T06:34:41;3.87;;;1.60;;
19780;SDS011;10050;55.492;13.506;2023-07-31T06:37:07;4.27;;;1.70;;
19780;SDS011;10050;55.492;13.506;2023-07-31T06:39:33;3.20;;;1.43;;
19780;SDS011;10050;55.492;13.506;2023-07-31T06:41:58;9.63;;;1.87;;
19780;SDS011;10050;55.492;13.506;2023-07-31T06:44:24;3.93;;;1.63;;
19780;SDS011;10050;55.492;13.506;2023-07-31T06:46:50;4.70;;;1.90;;
19780;SDS011;10050;55.492;13.506;2023-07-31T06:49:15;4.23;;;1.60;;
19780;SDS011;10050;55.492;13.506;2023-07-31T06:51:41;4.53;;;1.63;;
19780;SDS011;10050;55.492;13.506;2023-07-31T06:54:08;3.87;;;1.57;;
19780;SDS011;10050;55.492;13.506;2023-07-31T06:56:33;4.80;;;2.03;;
19780;SDS011;10050;55.492;13.506;2023-07-31T06:58:59;3.63;;;1.57;;
19780;SDS011;10050;55.492;13.506;2023-07-31T07:01:25;6.23;;;1.67;;
19780;SDS011;10050;55.492;13.506;2023-07-31T07:03:50;5.23;;;1.77;;
19780;SDS011;10050;55.492;13.506;2023-07-31T07:06:19;4.10;;;1.60;;
19780;SDS011;10050;55.492;13.506;2023-07-31T07:08:47;7.23;;;1.70;;
19780;SDS011;10050;55.492;13.506;2023-07-31T07:11:16;4.10;;;1.50;;
19780;SDS011;10050;55.492;13.506;2023-07-31T07:13:41;2.37;;;1.50;;
19780;SDS011;10050;55.492;13.506;2023-07-31T07:16:07;6.00;;;1.30;;
19780;SDS011;10050;55.492;13.506;2023-07-31T07:18:33;5.13;;;1.47;;
19780;SDS011;10050;55.492;13.506;2023-07-31T07:20:59;4.93;;;1.20;;
19780;SDS011;10050;55.492;13.506;2023-07-31T07:23:27;4.53;;;1.70;;
19780;SDS011;10050;55.492;13.506;2023-07-31T07:25:52;3.57;;;1.70;;
19780;SDS011;10050;55.492;13.506;2023-07-31T07:28:18;2.57;;;1.50;;
19780;SDS011;10050;55.492;13.506;2023-07-31T07:30:43;5.40;;;1.67;;
19780;SDS011;10050;55.492;13.506;2023-07-31T07:33:09;3.60;;;1.63;;
19780;SDS011;10050;55.492;13.506;2023-07-31T07:35:35;8.67;;;1.77;;
19780;SDS011;10050;55.492;13.506;2023-07-31T07:38:01;1.97;;;1.13;;
19780;SDS011;10050;55.492;13.506;2023-07-31T07:40:27;2.53;;;1.10;;
19780;SDS011;10050;55.492;13.506;2023-07-31T07:42:53;2.63;;;1.50;;
19780;SDS011;10050;55.492;13.506;2023-07-31T07:45:18;4.63;;;1.70;;
19780;SDS011;10050;55.492;13.506;2023-07-31T07:47:44;2.87;;;1.53;;
19780;SDS011;10050;55.492;13.506;2023-07-31T07:50:10;3.23;;;1.70;;
19780;SDS011;10050;55.492;13.506;2023-07-31T07:52:35;2.63;;;1.63;;
19780;SDS011;10050;55.492;13.506;2023-07-31T07:55:01;2.73;;;1.40;;
19780;SDS011;10050;55.492;13.506;2023-07-31T07:57:28;4.83;;;1.50;;
19780;SDS011;10050;55.492;13.506;2023-07-31T07:59:54;3.60;;;1.57;;
19780;SDS011;10050;55.492;13.506;2023-07-31T08:02:19;4.87;;;1.80;;
19780;SDS011;10050;55.492;13.506;2023-07-31T08:04:45;3.77;;;2.03;;
19780;SDS011;10050;55.492;13.506;2023-07-31T08:07:11;4.47;;;1.73;;
19780;SDS011;10050;55.492;13.506;2023-07-31T08:09:39;4.10;;;2.10;;
19780;SDS011;10050;55.492;13.506;2023-07-31T08:12:06;2.43;;;1.73;;
19780;SDS011;10050;55.492;13.506;2023-07-31T08:14:32;3.60;;;1.30;;
19780;SDS011;10050;55.492;13.506;2023-07-31T08:16:58;2.90;;;1.70;;
19780;SDS011;10050;55.492;13.506;2023-07-31T08:19:24;3.33;;;1.80;;
19780;SDS011;10050;55.492;13.506;2023-07-31T08:21:50;5.43;;;2.13;;
19780;SDS011;10050;55.492;13.506;2023-07-31T08:24:15;4.40;;;2.07;;
19780;SDS011;10050;55.492;13.506;2023-07-31T08:26:41;3.93;;;2.10;;
19780;SDS011;10050;55.492;13.506;2023-07-31T08:29:07;2.23;;;1.57;;
19780;SDS011;10050;55.492;13.506;2023-07-31T08:31:32;3.93;;;2.27;;
19780;SDS011;10050;55.492;13.506;2023-07-31T08:33:58;5.17;;;2.07;;
19780;SDS011;10050;55.492;13.506;2023-07-31T08:36:23;6.00;;;2.10;;
19780;SDS011;10050;55.492;13.506;2023-07-31T08:38:49;4.37;;;2.20;;
19780;SDS011;10050;55.492;13.506;2023-07-31T08:41:15;2.93;;;2.00;;
19780;SDS011;10050;55.492;13.506;2023-07-31T08:43:45;4.87;;;2.23;;
19780;SDS011;10050;55.492;13.506;2023-07-31T08:46:11;5.07;;;2.40;;
19780;SDS011;10050;55.492;13.506;2023-07-31T08:48:37;4.27;;;2.67;;
19780;SDS011;10050;55.492;13.506;2023-07-31T08:51:03;3.60;;;2.33;;
19780;SDS011;10050;55.492;13.506;2023-07-31T08:53:29;3.43;;;2.17;;
19780;SDS011;10050;55.492;13.506;2023-07-31T08:55:55;5.13;;;2.37;;
19780;SDS011;10050;55.492;13.506;2023-07-31T08:58:23;4.13;;;2.53;;
19780;SDS011;10050;55.492;13.506;2023-07-31T09:00:50;8.43;;;3.07;;
19780;SDS011;10050;55.492;13.506;2023-07-31T09:03:17;6.17;;;3.27;;
19780;SDS011;10050;55.492;13.506;2023-07-31T09:05:44;3.70;;;2.80;;
19780;SDS011;10050;55.492;13.506;2023-07-31T09:08:12;4.23;;;3.00;;
19780;SDS011;10050;55.492;13.506;2023-07-31T09:10:42;6.63;;;2.40;;
19780;SDS011;10050;55.492;13.506;2023-07-31T09:13:10;8.47;;;3.40;;
19780;SDS011;10050;55.492;13.506;2023-07-31T09:15:36;3.33;;;2.43;;
19780;SDS011;10050;55.492;13.506;2023-07-31T09:18:05;3.87;;;2.20;;
19780;SDS011;10050;55.492;13.506;2023-07-31T09:20:32;4.57;;;2.20;;
19780;SDS011;10050;55.492;13.506;2023-07-31T09:23:05;3.10;;;2.20;;
19780;SDS011;10050;55.492;13.506;2023-07-31T09:25:39;5.63;;;1.73;;
19780;SDS011;10050;55.492;13.506;2023-07-31T09:28:08;4.10;;;2.00;;
19780;SDS011;10050;55.492;13.506;2023-07-31T09:30:50;3.27;;;1.13;;
19780;SDS011;10050;55.492;13.506;2023-07-31T09:33:17;2.03;;;1.73;;
19780;SDS011;10050;55.492;13.506;2023-07-31T09:35:44;1.60;;;1.47;;
19780;SDS011;10050;55.492;13.506;2023-07-31T09:38:10;2.27;;;1.27;;
19780;SDS011;10050;55.492;13.506;2023-07-31T09:40:38;3.00;;;1.40;;
19780;SDS011;10050;55.492;13.506;2023-07-31T09:43:06;2.87;;;1.60;;
19780;SDS011;10050;55.492;13.506;2023-07-31T09:45:37;3.37;;;1.53;;
19780;SDS011;10050;55.492;13.506;2023-07-31T09:48:06;2.70;;;1.43;;
19780;SDS011;10050;55.492;13.506;2023-07-31T09:50:37;1.83;;;1.70;;
19780;SDS011;10050;55.492;13.506;2023-07-31T09:53:04;1.97;;;1.50;;
19780;SDS011;10050;55.492;13.506;2023-07-31T09:55:30;4.80;;;2.40;;
19780;SDS011;10050;55.492;13.506;2023-07-31T09:57:59;3.70;;;1.70;;
19780;SDS011;10050;55.492;13.506;2023-07-31T10:00:29;3.23;;;1.50;;
19780;SDS011;10050;55.492;13.506;2023-07-31T10:02:57;5.03;;;1.60;;
19780;SDS011;10050;55.492;13.506;2023-07-31T10:05:24;4.27;;;1.50;;
19780;SDS011;10050;55.492;13.506;2023-07-31T10:07:58;4.00;;;1.83;;
19780;SDS011;10050;55.492;13.506;2023-07-31T10:10:25;3.10;;;1.53;;
19780;SDS011;10050;55.492;13.506;2023-07-31T10:12:52;3.57;;;1.53;;
19780;SDS011;10050;55.492;13.506;2023-07-31T10:15:18;3.43;;;1.63;;
19780;SDS011;10050;55.492;13.506;2023-07-31T10:17:47;2.13;;;1.50;;
19780;SDS011;10050;55.492;13.506;2023-07-31T10:20:14;2.73;;;1.70;;
19780;SDS011;10050;55.492;13.506;2023-07-31T10:22:41;3.60;;;1.40;;
19780;SDS011;10050;55.492;13.506;2023-07-31T10:25:13;4.40;;;1.43;;
19780;SDS011;10050;55.492;13.506;2023-07-31T10:27:40;1.40;;;1.10;;
19780;SDS011;10050;55.492;13.506;2023-07-31T10:30:11;2.33;;;1.27;;
19780;SDS011;10050;55.492;13.506;2023-07-31T10:32:40;3.07;;;1.47;;
19780;SDS011;10050;55.492;13.506;2023-07-31T10:35:08;3.03;;;1.50;;
19780;SDS011;10050;55.492;13.506;2023-07-31T10:37:38;2.90;;;1.37;;
19780;SDS011;10050;55.492;13.506;2023-07-31T10:42:51;1.20;;;1.00;;
19780;SDS011;10050;55.492;13.506;2023-07-31T10:45:36;1.43;;;1.10;;
19780;SDS011;10050;55.492;13.506;2023-07-31T10:48:14;2.07;;;1.20;;
19780;SDS011;10050;55.492;13.506;2023-07-31T10:50:51;2.83;;;1.47;;
19780;SDS011;10050;55.492;13.506;2023-07-31T10:53:28;1.80;;;1.27;;
19780;SDS011;10050;55.492;13.506;2023-07-31T10:55:58;3.97;;;2.07;;
19780;SDS011;10050;55.492;13.506;2023-07-31T10:58:25;4.13;;;1.93;;
19780;SDS011;10050;55.492;13.506;2023-07-31T11:00:51;2.27;;;1.93;;
19780;SDS011;10050;55.492;13.506;2023-07-31T11:03:24;3.70;;;2.00;;
19780;SDS011;10050;55.492;13.506;2023-07-31T11:06:00;3.13;;;2.43;;
19780;SDS011;10050;55.492;13.506;2023-07-31T11:08:29;5.47;;;2.43;;
19780;SDS011;10050;55.492;13.506;2023-07-31T11:13:28;5.87;;;2.40;;
19780;SDS011;10050;55.492;13.506;2023-07-31T11:18:50;4.53;;;2.50;;
19780;SDS011;10050;55.492;13.506;2023-07-31T11:21:17;4.97;;;2.53;;
19780;SDS011;10050;55.492;13.506;2023-07-31T11:23:51;2.43;;;2.30;;
19780;SDS011;10050;55.492;13.506;2023-07-31T11:26:19;3.87;;;2.07;;
19780;SDS011;10050;55.492;13.506;2023-07-31T11:28:47;7.07;;;2.87;;
19780;SDS011;10050;55.492;13.506;2023-07-31T11:31:13;4.07;;;2.40;;
19780;SDS011;10050;55.492;13.506;2023-07-31T11:33:39;4.63;;;2.33;;
19780;SDS011;10050;55.492;13.506;2023-07-31T11:36:05;5.63;;;2.47;;
19780;SDS011;10050;55.492;13.506;2023-07-31T11:38:31;4.67;;;2.43;;
19780;SDS011;10050;55.492;13.506;2023-07-31T11:41:01;2.77;;;2.20;;
19780;SDS011;10050;55.492;13.506;2023-07-31T11:43:28;3.70;;;2.20;;
19780;SDS011;10050;55.492;13.506;2023-07-31T11:45:56;3.93;;;2.33;;
19780;SDS011;10050;55.492;13.506;2023-07-31T11:48:24;2.10;;;1.90;;
19780;SDS011;10050;55.492;13.506;2023-07-31T11:50:52;3.67;;;2.10;;
19780;SDS011;10050;55.492;13.506;2023-07-31T11:53:33;2.63;;;1.83;;
19780;SDS011;10050;55.492;13.506;2023-07-31T11:56:07;2.23;;;2.00;;
19780;SDS011;10050;55.492;13.506;2023-07-31T11:58:36;4.93;;;2.70;;
19780;SDS011;10050;55.492;13.506;2023-07-31T12:01:03;2.40;;;2.17;;
19780;SDS011;10050;55.492;13.506;2023-07-31T12:03:29;6.10;;;2.17;;
19780;SDS011;10050;55.492;13.506;2023-07-31T12:05:56;4.23;;;2.17;;
19780;SDS011;10050;55.492;13.506;2023-07-31T12:08:23;2.27;;;2.07;;
19780;SDS011;10050;55.492;13.506;2023-07-31T12:10:50;5.97;;;2.27;;
19780;SDS011;10050;55.492;13.506;2023-07-31T12:13:20;4.37;;;1.87;;
19780;SDS011;10050;55.492;13.506;2023-07-31T12:15:47;6.10;;;1.80;;
19780;SDS011;10050;55.492;13.506;2023-07-31T12:18:14;2.67;;;1.70;;
19780;SDS011;10050;55.492;13.506;2023-07-31T12:20:41;2.77;;;1.90;;
19780;SDS011;10050;55.492;13.506;2023-07-31T12:23:12;3.60;;;2.03;;
19780;SDS011;10050;55.492;13.506;2023-07-31T12:25:59;3.57;;;1.67;;
19780;SDS011;10050;55.492;13.506;2023-07-31T12:28:35;5.20;;;1.80;;
19780;SDS011;10050;55.492;13.506;2023-07-31T12:31:08;2.37;;;2.17;;
19780;SDS011;10050;55.492;13.506;2023-07-31T12:33:36;5.80;;;2.50;;
19780;SDS011;10050;55.492;13.506;2023-07-31T12:36:04;3.87;;;2.07;;
19780;SDS011;10050;55.492;13.506;2023-07-31T12:38:34;4.27;;;2.50;;
19780;SDS011;10050;55.492;13.506;2023-07-31T12:40:59;3.40;;;2.50;;
19780;SDS011;10050;55.492;13.506;2023-07-31T12:43:25;2.53;;;2.20;;
19780;SDS011;10050;55.492;13.506;2023-07-31T12:45:51;5.37;;;2.40;;
19780;SDS011;10050;55.492;13.506;2023-07-31T12:48:17;3.67;;;2.03;;
19780;SDS011;10050;55.492;13.506;2023-07-31T12:50:43;2.20;;;2.00;;
19780;SDS011;10050;55.492;13.506;2023-07-31T12:53:08;4.90;;;1.97;;
19780;SDS011;10050;55.492;13.506;2023-07-31T12:55:34;2.90;;;2.03;;
19780;SDS011;10050;55.492;13.506;2023-07-31T12:58:01;1.90;;;1.80;;
19780;SDS011;10050;55.492;13.506;2023-07-31T13:00:27;2.63;;;2.13;;
19780;SDS011;10050;55.492;13.506;2023-07-31T13:02:53;2.63;;;2.10;;
19780;SDS011;10050;55.492;13.506;2023-07-31T13:05:18;4.10;;;2.00;;
19780;SDS011;10050;55.492;13.506;2023-07-31T13:07:47;2.63;;;1.70;;
19780;SDS011;10050;55.492;13.506;2023-07-31T13:10:16;1.90;;;1.80;;
19780;SDS011;10050;55.492;13.506;2023-07-31T13:12:42;2.20;;;1.80;;
19780;SDS011;10050;55.492;13.506;2023-07-31T13:15:08;3.93;;;2.20;;
19780;SDS011;10050;55.492;13.506;2023-07-31T13:17:34;1.77;;;1.60;;
19780;SDS011;10050;55.492;13.506;2023-07-31T13:20:00;1.90;;;1.80;;
19780;SDS011;10050;55.492;13.506;2023-07-31T13:22:26;4.60;;;1.87;;
19780;SDS011;10050;55.492;13.506;2023-07-31T13:24:52;2.23;;;1.47;;
19780;SDS011;10050;55.492;13.506;2023-07-31T13:27:18;3.10;;;1.40;;
19780;SDS011;10050;55.492;13.506;2023-07-31T13:29:50;3.33;;;1.30;;
19780;SDS011;10050;55.492;13.506;2023-07-31T13:32:16;1.00;;;1.00;;
19780;SDS011;10050;55.492;13.506;2023-07-31T13:34:43;2.00;;;1.40;;
19780;SDS011;10050;55.492;13.506;2023-07-31T13:37:12;4.37;;;1.50;;
19780;SDS011;10050;55.492;13.506;2023-07-31T13:39:38;1.63;;;1.40;;
19780;SDS011;10050;55.492;13.506;2023-07-31T13:42:04;1.50;;;1.40;;
19780;SDS011;10050;55.492;13.506;2023-07-31T13:44:34;2.70;;;1.50;;
19780;SDS011;10050;55.492;13.506;2023-07-31T13:47:00;2.80;;;1.50;;
19780;SDS011;10050;55.492;13.506;2023-07-31T13:49:26;4.73;;;1.43;;
19780;SDS011;10050;55.492;13.506;2023-07-31T13:51:52;1.53;;;1.30;;
19780;SDS011;10050;55.492;13.506;2023-07-31T13:54:21;1.87;;;1.40;;
19780;SDS011;10050;55.492;13.506;2023-07-31T13:56:48;1.90;;;1.30;;
19780;SDS011;10050;55.492;13.506;2023-07-31T13:59:17;1.70;;;1.33;;
19780;SDS011;10050;55.492;13.506;2023-07-31T14:01:43;1.10;;;1.10;;
19780;SDS011;10050;55.492;13.506;2023-07-31T14:04:09;3.73;;;1.40;;
19780;SDS011;10050;55.492;13.506;2023-07-31T14:06:34;3.10;;;1.40;;
19780;SDS011;10050;55.492;13.506;2023-07-31T14:09:00;1.83;;;1.73;;
19780;SDS011;10050;55.492;13.506;2023-07-31T14:11:26;2.20;;;1.37;;
19780;SDS011;10050;55.492;13.506;2023-07-31T14:13:52;2.97;;;1.70;;
19780;SDS011;10050;55.492;13.506;2023-07-31T14:16:18;3.20;;;1.40;;
19780;SDS011;10050;55.492;13.506;2023-07-31T14:18:43;3.57;;;1.40;;
19780;SDS011;10050;55.492;13.506;2023-07-31T14:21:10;1.70;;;1.60;;
19780;SDS011;10050;55.492;13.506;2023-07-31T14:23:36;2.50;;;1.30;;
19780;SDS011;10050;55.492;13.506;2023-07-31T14:26:02;2.37;;;1.40;;
19780;SDS011;10050;55.492;13.506;2023-07-31T14:28:27;2.87;;;1.67;;
19780;SDS011;10050;55.492;13.506;2023-07-31T14:30:53;2.53;;;1.20;;
19780;SDS011;10050;55.492;13.506;2023-07-31T14:33:19;2.80;;;1.20;;
19780;SDS011;10050;55.492;13.506;2023-07-31T14:35:44;1.40;;;1.30;;
19780;SDS011;10050;55.492;13.506;2023-07-31T14:38:10;2.00;;;1.40;;
19780;SDS011;10050;55.492;13.506;2023-07-31T14:40:36;1.97;;;1.40;;
19780;SDS011;10050;55.492;13.506;2023-07-31T14:43:06;3.17;;;1.40;;
19780;SDS011;10050;55.492;13.506;2023-07-31T14:45:31;1.53;;;1.30;;